Time;durP1;ratioP1;P1;durP2;ratioP2;P2;SDS_P1;SDS_P2;PMS_P1;PMS_P2;Temp;Humidity;BMP_temperature;BMP_pressure;BME280_temperature;BME280_humidity;BME280_pressure;Samples;Min_cycle;Max_cycle;Signal;HPM_P1;HPM_P2
2022/07/20 00:00:50;;;;;;;11.02;6.40;;;22.10;94.60;;;;;;4995262;28;20265;-91
2022/07/20 00:03:15;;;;;;;8.43;6.25;;;22.10;95.00;;;;;;4995874;28;20171;-91
2022/07/20 00:05:43;;;;;;;9.95;5.93;;;22.00;95.10;;;;;;4995423;28;20190;-91
2022/07/20 00:08:10;;;;;;;8.10;6.07;;;22.00;95.30;;;;;;4995418;28;20233;-91
2022/07/20 00:13:21;;;;;;;9.32;6.40;;;21.90;95.70;;;;;;4994742;28;20172;-91
2022/07/20 00:15:47;;;;;;;10.52;6.30;;;21.70;95.60;;;;;;4994963;28;20184;-91
2022/07/20 00:18:13;;;;;;;14.38;6.53;;;21.60;95.50;;;;;;4979330;28;20229;-91
2022/07/20 00:20:39;;;;;;;9.73;6.57;;;21.40;95.40;;;;;;4995284;28;20198;-91
2022/07/20 00:23:05;;;;;;;16.55;6.60;;;21.30;95.60;;;;;;4995466;28;20270;-91
2022/07/20 00:25:31;;;;;;;8.82;5.97;;;21.10;95.90;;;;;;4979275;28;20175;-91
2022/07/20 00:27:57;;;;;;;14.45;6.55;;;21.00;96.10;;;;;;4979293;28;20179;-91
2022/07/20 00:30:24;;;;;;;12.80;6.15;;;20.90;96.10;;;;;;4995424;28;20202;-91
2022/07/20 00:32:50;;;;;;;9.68;6.20;;;21.00;96.40;;;;;;4994952;28;20184;-91
2022/07/20 00:35:16;;;;;;;8.32;6.03;;;21.00;96.40;;;;;;4979353;28;20228;-90
2022/07/20 00:38:02;;;;;;;12.27;7.07;;;21.00;96.60;;;;;;4979273;28;20198;-90
2022/07/20 00:40:28;;;;;;;10.70;6.45;;;21.00;96.60;;;;;;4979426;28;20271;-91
2022/07/20 00:42:54;;;;;;;10.45;6.50;;;21.10;96.60;;;;;;4978872;28;20282;-91
2022/07/20 00:45:47;;;;;;;11.18;6.68;;;21.10;96.40;;;;;;4995917;28;20175;-91
2022/07/20 00:48:13;;;;;;;10.27;6.85;;;21.10;96.40;;;;;;4983104;28;20221;-91
2022/07/20 00:50:39;;;;;;;11.23;7.07;;;21.00;96.10;;;;;;4983298;28;20179;-91
2022/07/20 00:53:06;;;;;;;9.45;7.43;;;21.00;96.40;;;;;;4983412;28;20175;-91
2022/07/20 00:55:33;;;;;;;9.18;6.45;;;20.90;96.30;;;;;;4983246;28;20190;-91
2022/07/20 00:57:59;;;;;;;14.38;6.60;;;20.70;96.70;;;;;;4999059;28;20183;-91
2022/07/20 01:00:25;;;;;;;9.05;6.90;;;20.60;97.10;;;;;;4982489;28;20193;-91
2022/07/20 01:02:51;;;;;;;9.00;6.82;;;20.50;97.30;;;;;;4981568;28;20198;-90
2022/07/20 01:05:20;;;;;;;7.80;6.65;;;20.50;97.80;;;;;;4998036;28;20179;-91
2022/07/20 01:07:52;;;;;;;8.98;6.72;;;20.50;97.70;;;;;;4998323;28;20191;-91
2022/07/20 01:10:19;;;;;;;12.27;6.65;;;20.50;97.90;;;;;;4998145;28;20237;-90
2022/07/20 01:12:49;;;;;;;7.80;6.15;;;20.50;97.90;;;;;;4998244;28;20202;-91
2022/07/20 01:15:16;;;;;;;8.93;5.85;;;20.40;98.00;;;;;;4998303;28;20218;-91
2022/07/20 01:17:42;;;;;;;8.20;6.53;;;20.50;98.10;;;;;;4981964;28;20175;-91
2022/07/20 01:20:15;;;;;;;12.18;5.63;;;20.40;98.40;;;;;;4997779;28;20179;-90
2022/07/20 01:22:42;;;;;;;9.75;5.93;;;20.30;98.80;;;;;;4982396;28;20210;-91
2022/07/20 01:25:08;;;;;;;9.48;6.00;;;20.20;98.80;;;;;;4997991;28;20182;-91
2022/07/20 01:27:34;;;;;;;12.73;6.90;;;20.20;98.60;;;;;;4982240;28;20183;-90
2022/07/20 01:30:00;;;;;;;11.70;6.47;;;20.20;98.70;;;;;;4981677;28;20213;-90
2022/07/20 01:32:26;;;;;;;9.55;6.30;;;20.20;98.60;;;;;;4980844;28;20241;-91
2022/07/20 01:34:52;;;;;;;11.52;6.97;;;20.20;98.40;;;;;;4997925;28;20190;-91
2022/07/20 01:37:17;;;;;;;10.35;6.28;;;20.20;98.40;;;;;;4997288;28;20175;-90
2022/07/20 01:39:43;;;;;;;8.48;5.97;;;20.20;99.00;;;;;;4995937;28;20214;-91
2022/07/20 01:42:09;;;;;;;9.02;6.40;;;20.30;98.60;;;;;;4996403;28;20222;-91
2022/07/20 01:44:35;;;;;;;10.93;6.13;;;20.30;98.40;;;;;;4997691;28;20667;-90
2022/07/20 01:47:01;;;;;;;9.50;6.38;;;20.30;98.40;;;;;;4981241;28;20262;-91
2022/07/20 01:49:27;;;;;;;8.45;6.15;;;20.20;98.80;;;;;;4998111;28;20207;-91
2022/07/20 01:51:54;;;;;;;8.73;6.40;;;20.10;99.30;;;;;;4997631;28;20226;-90
2022/07/20 01:54:20;;;;;;;8.80;6.13;;;20.10;99.60;;;;;;4981403;28;20262;-91
2022/07/20 01:56:46;;;;;;;12.35;6.53;;;20.00;99.70;;;;;;4997746;28;20242;-90
2022/07/20 01:59:11;;;;;;;9.52;6.60;;;19.90;99.80;;;;;;4997702;28;20183;-91
2022/07/20 02:01:38;;;;;;;9.20;6.85;;;19.70;99.90;;;;;;4997363;28;20260;-90
2022/07/20 02:04:05;;;;;;;10.30;6.70;;;19.70;99.90;;;;;;4997347;28;20179;-91
2022/07/20 02:06:31;;;;;;;6.80;5.43;;;19.70;99.90;;;;;;4981653;28;20191;-91
2022/07/20 02:08:57;;;;;;;10.45;6.38;;;19.70;99.90;;;;;;4997534;28;20195;-91
2022/07/20 02:11:23;;;;;;;7.32;5.75;;;19.70;99.90;;;;;;4997099;28;20210;-91
2022/07/20 02:13:50;;;;;;;9.07;6.93;;;19.70;99.90;;;;;;4997100;28;20183;-91
2022/07/20 02:16:16;;;;;;;7.78;6.22;;;19.70;99.90;;;;;;4997537;28;20175;-91
2022/07/20 02:18:51;;;;;;;10.93;6.40;;;19.70;99.90;;;;;;4981228;28;20182;-91
2022/07/20 02:21:19;;;;;;;8.45;5.97;;;19.70;99.90;;;;;;4981107;28;20203;-91
2022/07/20 02:23:45;;;;;;;8.18;6.70;;;19.70;99.90;;;;;;4997208;28;20184;-91
2022/07/20 02:26:11;;;;;;;10.32;6.70;;;19.70;99.90;;;;;;4996447;28;20187;-91
2022/07/20 02:28:37;;;;;;;8.82;6.75;;;19.70;99.90;;;;;;4996935;28;20211;-90
2022/07/20 02:31:05;;;;;;;11.43;6.20;;;19.60;99.90;;;;;;4996796;28;20210;-90
2022/07/20 02:33:31;;;;;;;8.90;5.88;;;19.60;99.90;;;;;;4997354;28;20179;-91
2022/07/20 02:36:07;;;;;;;10.50;6.50;;;19.60;99.90;;;;;;4994399;28;20171;-90
2022/07/20 02:38:33;;;;;;;10.77;6.70;;;19.60;99.90;;;;;;4978289;28;20554;-91
2022/07/20 02:40:59;;;;;;;10.00;6.32;;;19.60;99.90;;;;;;4980709;28;20195;-91
2022/07/20 02:43:25;;;;;;;8.25;6.53;;;19.40;99.90;;;;;;4996941;28;20195;-90
2022/07/20 02:45:51;;;;;;;10.85;6.75;;;19.40;99.90;;;;;;4996357;28;20620;-90
2022/07/20 02:48:17;;;;;;;9.30;6.90;;;19.40;99.90;;;;;;4997017;28;20257;-90
2022/07/20 02:50:42;;;;;;;6.88;6.18;;;19.40;99.90;;;;;;4995919;28;20206;-90
2022/07/20 02:53:09;;;;;;;8.50;6.10;;;19.40;99.90;;;;;;4980824;28;20187;-90
2022/07/20 02:55:36;;;;;;;10.32;6.80;;;19.30;99.90;;;;;;4980339;28;20261;-90
2022/07/20 02:58:03;;;;;;;10.73;6.80;;;19.30;99.90;;;;;;4980440;28;20266;-91
2022/07/20 03:00:29;;;;;;;8.38;6.80;;;19.30;99.90;;;;;;4990367;28;20226;-90
2022/07/20 03:02:55;;;;;;;9.82;6.60;;;19.20;99.90;;;;;;4980068;28;20183;-91
2022/07/20 03:05:21;;;;;;;10.20;6.55;;;19.10;99.90;;;;;;4996696;28;20180;-91
2022/07/20 03:07:47;;;;;;;10.15;7.00;;;19.10;99.90;;;;;;4995893;28;20182;-90
2022/07/20 03:10:14;;;;;;;7.88;6.30;;;18.90;99.90;;;;;;4980121;28;20202;-91
2022/07/20 03:12:40;;;;;;;8.73;6.47;;;18.80;99.90;;;;;;4996067;28;20206;-91
2022/07/20 03:15:07;;;;;;;10.43;7.43;;;18.70;99.90;;;;;;4996922;28;20183;-90
2022/07/20 03:18:01;;;;;;;8.93;6.40;;;18.70;99.90;;;;;;4996853;28;20175;-91
2022/07/20 03:20:31;;;;;;;8.48;6.80;;;18.70;99.90;;;;;;4996757;28;20182;-90
2022/07/20 03:22:58;;;;;;;8.98;6.95;;;18.70;99.90;;;;;;4996247;28;20178;-90
2022/07/20 03:25:24;;;;;;;10.63;7.38;;;18.80;99.90;;;;;;4979608;28;20168;-90
2022/07/20 03:27:58;;;;;;;8.87;6.63;;;18.70;99.90;;;;;;4980593;28;20234;-91
2022/07/20 03:30:25;;;;;;;10.20;7.00;;;18.60;99.90;;;;;;4979639;28;20183;-91
2022/07/20 03:32:52;;;;;;;7.10;6.40;;;18.60;99.90;;;;;;4980221;28;20175;-91
2022/07/20 03:35:18;;;;;;;9.27;6.63;;;18.60;99.90;;;;;;4979774;28;20182;-90
2022/07/20 03:37:44;;;;;;;8.80;6.83;;;18.60;99.90;;;;;;4995959;28;20233;-91
2022/07/20 03:40:11;;;;;;;7.53;6.73;;;18.60;99.90;;;;;;4977732;28;20191;-91
2022/07/20 03:42:37;;;;;;;9.68;6.55;;;18.60;99.90;;;;;;4995820;28;20257;-90
2022/07/20 03:45:03;;;;;;;7.82;6.97;;;18.70;99.90;;;;;;4995956;28;20394;-90
2022/07/20 03:47:29;;;;;;;9.73;6.97;;;18.70;99.90;;;;;;4979420;28;20183;-91
2022/07/20 03:49:55;;;;;;;7.90;7.07;;;18.60;99.90;;;;;;4979324;28;20229;-90
2022/07/20 03:52:22;;;;;;;7.85;6.63;;;18.50;99.90;;;;;;4995576;28;20202;-90
2022/07/20 03:54:48;;;;;;;9.87;6.87;;;18.60;99.90;;;;;;4978360;28;20232;-90
2022/07/20 03:57:14;;;;;;;7.73;6.87;;;18.70;99.90;;;;;;4979902;28;20178;-91
2022/07/20 03:59:40;;;;;;;8.18;6.63;;;18.70;99.90;;;;;;4979351;28;20184;-90
2022/07/20 04:02:10;;;;;;;7.65;6.07;;;18.70;99.90;;;;;;4978399;28;20258;-90
2022/07/20 04:04:36;;;;;;;17.70;6.75;;;18.70;99.90;;;;;;4978828;28;20179;-90
2022/07/20 04:07:02;;;;;;;8.93;6.47;;;18.80;99.90;;;;;;4979590;28;20175;-90
2022/07/20 04:12:19;;;;;;;7.30;6.45;;;18.80;99.90;;;;;;4995442;28;20238;-91
2022/07/20 04:14:54;;;;;;;9.85;6.72;;;18.80;99.90;;;;;;4979322;28;20207;-90
2022/07/20 04:17:23;;;;;;;9.27;6.72;;;18.80;99.90;;;;;;4975054;28;20182;-90
2022/07/20 04:19:59;;;;;;;9.38;6.63;;;18.80;99.90;;;;;;4996777;28;20206;-91
2022/07/20 04:22:26;;;;;;;7.57;5.97;;;18.80;99.90;;;;;;4998678;28;20281;-90
2022/07/20 04:24:52;;;;;;;8.27;6.60;;;18.70;99.90;;;;;;4998689;28;20175;-91
2022/07/20 04:27:20;;;;;;;8.73;6.75;;;18.70;99.90;;;;;;4981195;28;20199;-90
2022/07/20 04:30:35;;;;;;;10.57;6.28;;;18.70;99.90;;;;;;4982409;28;20709;-90
2022/07/20 04:33:01;;;;;;;8.17;6.87;;;18.70;99.90;;;;;;4979395;28;20633;-90
2022/07/20 04:35:27;;;;;;;10.73;7.05;;;18.70;99.90;;;;;;4963024;28;20239;-90
2022/07/20 04:37:53;;;;;;;11.10;6.53;;;18.70;99.90;;;;;;4962928;28;20175;-90
2022/07/20 04:40:19;;;;;;;7.60;6.47;;;18.70;99.90;;;;;;4965323;28;20183;-90
2022/07/20 04:42:45;;;;;;;13.68;7.35;;;18.70;99.90;;;;;;4997454;28;20214;-90
2022/07/20 04:45:11;;;;;;;7.90;7.05;;;18.70;99.90;;;;;;4982513;28;20180;-90
2022/07/20 04:47:37;;;;;;;9.25;6.93;;;18.60;99.90;;;;;;4983085;28;20183;-90
2022/07/20 04:50:03;;;;;;;9.40;7.20;;;18.70;99.90;;;;;;4982863;28;20233;-90
2022/07/20 04:52:29;;;;;;;11.27;6.95;;;18.80;99.90;;;;;;4976004;28;20216;-90
2022/07/20 04:54:55;;;;;;;9.32;6.85;;;18.80;99.90;;;;;;4963462;28;20255;-90
2022/07/20 04:57:23;;;;;;;11.05;7.20;;;18.80;99.90;;;;;;4963253;28;20256;-90
2022/07/20 04:59:54;;;;;;;9.27;6.97;;;18.80;99.90;;;;;;4979163;28;20211;-90
2022/07/20 05:02:20;;;;;;;9.70;7.20;;;18.80;99.90;;;;;;4963547;28;20285;-90
2022/07/20 05:04:48;;;;;;;8.30;7.47;;;18.80;99.90;;;;;;4963267;28;20176;-90
2022/07/20 05:07:15;;;;;;;11.25;7.32;;;18.90;99.90;;;;;;4974026;28;20660;-90
2022/07/20 05:09:41;;;;;;;8.75;7.65;;;18.90;99.90;;;;;;4998599;28;20222;-90
2022/07/20 05:12:07;;;;;;;11.52;7.50;;;18.90;99.90;;;;;;4998796;28;20294;-90
2022/07/20 05:14:35;;;;;;;10.90;7.40;;;19.00;99.90;;;;;;4998455;28;20482;-90
2022/07/20 05:17:01;;;;;;;9.25;6.65;;;19.00;99.90;;;;;;4999121;28;20217;-90
2022/07/20 05:19:27;;;;;;;12.13;7.15;;;19.00;99.90;;;;;;4998491;28;20658;-91
2022/07/20 05:21:53;;;;;;;10.32;7.40;;;19.10;99.90;;;;;;4996022;28;20203;-90
2022/07/20 05:24:19;;;;;;;15.35;7.90;;;19.10;99.90;;;;;;4995969;28;20258;-90
2022/07/20 05:26:45;;;;;;;18.65;8.48;;;19.20;99.90;;;;;;4979822;28;20199;-91
2022/07/20 05:29:11;;;;;;;10.88;7.15;;;19.20;99.90;;;;;;4996254;28;20220;-91
2022/07/20 05:31:37;;;;;;;15.35;7.57;;;19.30;99.90;;;;;;4995995;28;20199;-89
2022/07/20 05:34:03;;;;;;;10.02;7.10;;;19.40;99.90;;;;;;4981434;28;20219;-87
2022/07/20 05:37:12;;;;;;;13.38;7.53;;;19.50;99.90;;;;;;4981621;28;20179;-90
2022/07/20 05:39:44;;;;;;;10.93;7.93;;;19.70;99.90;;;;;;4997184;28;20182;-90
2022/07/20 05:42:10;;;;;;;7.63;6.70;;;19.90;99.90;;;;;;4988096;28;20207;-90
2022/07/20 05:44:39;;;;;;;8.82;7.15;;;20.00;99.90;;;;;;4979100;28;20179;-90
2022/07/20 05:47:06;;;;;;;9.25;7.50;;;20.20;99.90;;;;;;4980033;28;20206;-91
2022/07/20 05:49:37;;;;;;;11.77;8.00;;;20.40;99.90;;;;;;4981448;28;20576;-90
2022/07/20 05:52:04;;;;;;;11.45;7.80;;;20.60;99.90;;;;;;4980600;28;20195;-90
2022/07/20 05:54:30;;;;;;;11.65;8.00;;;20.70;99.90;;;;;;4997368;28;20262;-90
2022/07/20 05:56:57;;;;;;;9.32;7.05;;;20.90;99.90;;;;;;4997257;28;20184;-90
2022/07/20 05:59:24;;;;;;;7.82;6.85;;;21.00;99.90;;;;;;4997309;28;20183;-90
2022/07/20 06:01:51;;;;;;;10.63;7.32;;;21.20;99.90;;;;;;4982891;28;20230;-90
2022/07/20 06:04:17;;;;;;;10.13;7.13;;;21.30;99.90;;;;;;4980961;28;20246;-90
2022/07/20 06:06:44;;;;;;;10.45;7.85;;;21.50;99.90;;;;;;4980562;28;20190;-90
2022/07/20 06:09:10;;;;;;;10.27;7.78;;;21.60;99.90;;;;;;4981274;28;20218;-90
2022/07/20 06:11:36;;;;;;;9.45;7.20;;;21.70;99.90;;;;;;4981186;28;20298;-91
2022/07/20 06:14:02;;;;;;;10.38;7.57;;;21.90;99.90;;;;;;4980314;28;20254;-91
2022/07/20 06:16:28;;;;;;;10.20;7.90;;;22.10;99.90;;;;;;4981177;28;20179;-91
2022/07/20 06:18:54;;;;;;;11.25;6.93;;;22.30;99.90;;;;;;4977095;28;20183;-91
2022/07/20 06:21:23;;;;;;;10.02;7.70;;;22.40;99.90;;;;;;4997977;28;20201;-90
2022/07/20 06:23:54;;;;;;;9.13;7.65;;;22.60;99.90;;;;;;4998831;28;20250;-90
2022/07/20 06:26:22;;;;;;;10.02;7.20;;;22.70;99.90;;;;;;4997255;28;20176;-91
2022/07/20 06:28:49;;;;;;;8.95;7.40;;;22.90;99.80;;;;;;4980204;28;20261;-90
2022/07/20 06:31:15;;;;;;;9.80;7.35;;;23.00;99.10;;;;;;4996724;28;20246;-91
2022/07/20 06:33:41;;;;;;;11.73;7.78;;;23.20;99.60;;;;;;4996204;28;20184;-91
2022/07/20 06:36:34;;;;;;;16.23;7.80;;;23.30;99.10;;;;;;4996668;28;20175;-91
2022/07/20 06:39:02;;;;;;;10.82;7.97;;;23.40;98.80;;;;;;4987599;28;20266;-91
2022/07/20 06:41:28;;;;;;;12.68;7.70;;;23.60;98.70;;;;;;4996425;28;20203;-90
2022/07/20 06:44:01;;;;;;;7.10;6.40;;;23.70;98.50;;;;;;4988533;28;20193;-91
2022/07/20 06:46:27;;;;;;;7.93;7.10;;;23.90;98.30;;;;;;4996715;28;20238;-91
2022/07/20 06:48:53;;;;;;;10.27;7.60;;;24.10;98.20;;;;;;4980960;28;20236;-91
2022/07/20 06:51:20;;;;;;;8.85;7.20;;;24.30;98.10;;;;;;4977939;28;20228;-91
2022/07/20 06:53:46;;;;;;;11.18;7.80;;;24.50;98.00;;;;;;4996563;28;20179;-91
2022/07/20 06:56:12;;;;;;;8.75;7.72;;;24.70;97.60;;;;;;4996215;28;20180;-91
2022/07/20 06:58:38;;;;;;;9.02;7.25;;;24.80;97.30;;;;;;4996646;28;20194;-91
2022/07/20 07:01:04;;;;;;;9.40;7.05;;;24.90;97.00;;;;;;4993493;28;20219;-92
2022/07/20 07:03:30;;;;;;;8.93;8.00;;;25.10;96.70;;;;;;4992415;28;20192;-91
2022/07/20 07:05:55;;;;;;;10.05;7.95;;;25.20;96.50;;;;;;4996320;28;20187;-91
2022/07/20 07:08:21;;;;;;;8.93;7.35;;;25.20;96.30;;;;;;4996263;28;20187;-91
2022/07/20 07:10:47;;;;;;;9.45;7.68;;;25.30;96.30;;;;;;4972480;28;20214;-91
2022/07/20 07:13:13;;;;;;;11.70;7.32;;;25.50;96.60;;;;;;4985036;28;20199;-91
2022/07/20 07:15:39;;;;;;;10.57;8.20;;;25.60;96.70;;;;;;4979529;28;20270;-91
2022/07/20 07:18:05;;;;;;;9.75;7.80;;;25.80;96.60;;;;;;4996296;28;20194;-91
2022/07/20 07:20:31;;;;;;;12.88;7.82;;;26.00;96.20;;;;;;4996037;28;20183;-91
2022/07/20 07:22:57;;;;;;;9.50;7.82;;;26.10;96.20;;;;;;4995946;28;20182;-90
2022/07/20 07:25:34;;;;;;;9.13;7.15;;;26.30;95.90;;;;;;4976353;28;20194;-91
2022/07/20 07:28:00;;;;;;;9.00;7.10;;;26.40;96.10;;;;;;4977240;28;20183;-91
2022/07/20 07:30:27;;;;;;;11.85;7.38;;;26.50;96.40;;;;;;4994810;28;20256;-91
2022/07/20 07:32:53;;;;;;;11.10;8.10;;;26.70;96.20;;;;;;4993914;28;20282;-91
2022/07/20 07:35:19;;;;;;;9.95;7.40;;;26.90;95.70;;;;;;4977800;28;20242;-91
2022/07/20 07:38:00;;;;;;;8.35;7.53;;;27.10;95.50;;;;;;4988945;28;20282;-91
2022/07/20 07:40:26;;;;;;;8.68;7.10;;;27.30;94.90;;;;;;4995993;28;20195;-90
2022/07/20 07:42:51;;;;;;;8.35;7.20;;;27.50;94.70;;;;;;5002157;28;20206;-91
2022/07/20 07:45:18;;;;;;;8.40;7.50;;;27.50;94.50;;;;;;4996230;28;20280;-91
2022/07/20 07:47:47;;;;;;;11.18;7.90;;;27.60;94.60;;;;;;4995604;28;20210;-91
2022/07/20 07:50:14;;;;;;;10.45;8.07;;;27.70;93.70;;;;;;4978699;28;20207;-91
2022/07/20 07:52:47;;;;;;;8.13;7.43;;;27.80;93.40;;;;;;4981176;28;20225;-91
2022/07/20 07:55:13;;;;;;;11.10;7.43;;;27.80;92.30;;;;;;4989117;28;20265;-91
2022/07/20 07:57:39;;;;;;;9.90;7.63;;;27.90;92.20;;;;;;4999240;28;20203;-91
2022/07/20 08:00:10;;;;;;;8.27;7.45;;;28.00;93.10;;;;;;4998367;28;20214;-91
2022/07/20 08:02:39;;;;;;;7.63;6.80;;;28.00;93.50;;;;;;5006307;28;20198;-91
2022/07/20 08:05:05;;;;;;;8.38;7.55;;;28.10;93.50;;;;;;4982190;28;20193;-91
2022/07/20 08:07:36;;;;;;;8.65;7.85;;;28.30;93.20;;;;;;4998404;28;20193;-91
2022/07/20 08:10:04;;;;;;;8.40;7.43;;;28.40;92.60;;;;;;4981902;28;20201;-91
2022/07/20 08:12:30;;;;;;;8.00;7.20;;;28.60;92.50;;;;;;4998661;28;20201;-91
2022/07/20 08:14:56;;;;;;;8.27;7.38;;;28.70;92.20;;;;;;4982390;28;20266;-91
2022/07/20 08:17:22;;;;;;;8.23;7.43;;;28.90;92.00;;;;;;4998662;28;20242;-91
2022/07/20 08:19:48;;;;;;;7.93;6.80;;;29.10;92.00;;;;;;4972235;28;20187;-91
2022/07/20 08:22:14;;;;;;;8.00;7.20;;;29.40;91.70;;;;;;4996605;28;20210;-92
2022/07/20 08:24:39;;;;;;;9.88;7.20;;;29.50;90.90;;;;;;4981830;28;20182;-91
2022/07/20 08:27:05;;;;;;;7.88;6.97;;;29.70;90.90;;;;;;4998017;28;20350;-91
2022/07/20 08:29:31;;;;;;;8.30;7.57;;;29.90;90.90;;;;;;4998015;28;20207;-91
2022/07/20 08:31:57;;;;;;;8.38;7.47;;;30.00;90.40;;;;;;4982071;28;20282;-91
2022/07/20 08:34:23;;;;;;;9.82;7.20;;;30.10;90.30;;;;;;4981609;28;20207;-91
2022/07/20 08:36:50;;;;;;;9.63;6.70;;;30.30;90.60;;;;;;4982515;28;20241;-91
2022/07/20 08:39:16;;;;;;;9.35;7.47;;;30.50;90.80;;;;;;4997795;28;20238;-91
2022/07/20 08:41:41;;;;;;;9.18;7.20;;;30.60;89.30;;;;;;4995843;28;20211;-91
2022/07/20 08:44:35;;;;;;;9.25;7.22;;;30.80;90.30;;;;;;4982559;28;20253;-91
2022/07/20 08:47:02;;;;;;;8.13;7.32;;;31.00;89.40;;;;;;5005592;28;20199;-91
2022/07/20 08:49:28;;;;;;;8.98;7.78;;;31.20;89.10;;;;;;5002100;28;20212;-91
2022/07/20 08:51:54;;;;;;;9.32;7.47;;;31.40;89.30;;;;;;5002125;28;20238;-92
2022/07/20 08:54:20;;;;;;;8.73;7.75;;;31.60;89.10;;;;;;4995442;28;20205;-91
2022/07/20 08:56:46;;;;;;;12.20;7.60;;;31.80;88.80;;;;;;4994761;28;20195;-90
2022/07/20 08:59:12;;;;;;;10.68;7.65;;;31.70;86.90;;;;;;4976342;28;20192;-91
2022/07/20 09:02:06;;;;;;;11.43;8.13;;;31.70;87.40;;;;;;4981067;28;20694;-92
2022/07/20 09:04:32;;;;;;;8.68;7.22;;;32.00;87.60;;;;;;4991187;28;20290;-91
2022/07/20 09:06:58;;;;;;;9.15;6.93;;;32.10;86.20;;;;;;4993530;28;20187;-91
2022/07/20 09:09:24;;;;;;;8.57;7.32;;;32.30;87.70;;;;;;4994735;28;20206;-91
2022/07/20 09:11:51;;;;;;;11.13;7.53;;;32.50;86.60;;;;;;4995372;28;20245;-91
2022/07/20 09:14:35;;;;;;;13.50;7.40;;;32.70;86.30;;;;;;4976425;28;20171;-91
2022/07/20 09:17:17;;;;;;;10.73;7.32;;;32.90;84.50;;;;;;4960250;28;20257;-91
2022/07/20 09:20:01;;;;;;;7.65;6.95;;;33.00;84.60;;;;;;4958078;28;20214;-91
2022/07/20 09:22:33;;;;;;;8.05;7.25;;;33.30;85.10;;;;;;4960158;28;20207;-91
2022/07/20 09:25:11;;;;;;;8.43;7.28;;;33.50;83.10;;;;;;4960408;28;20829;-91
2022/07/20 09:27:37;;;;;;;7.82;7.13;;;33.70;82.90;;;;;;4994866;28;20195;-91
2022/07/20 09:30:10;;;;;;;8.05;7.20;;;34.00;82.30;;;;;;4997623;28;20235;-91
2022/07/20 09:32:56;;;;;;;7.90;7.20;;;34.20;81.50;;;;;;4992822;28;20206;-92
2022/07/20 09:35:25;;;;;;;8.70;7.38;;;34.20;82.80;;;;;;4986237;28;20183;-92
2022/07/20 09:37:51;;;;;;;7.95;7.20;;;34.10;80.50;;;;;;4979861;28;20191;-91
2022/07/20 09:40:17;;;;;;;8.63;7.13;;;34.20;81.40;;;;;;4980000;28;20183;-91
2022/07/20 09:42:46;;;;;;;10.95;7.20;;;34.40;81.20;;;;;;4995453;28;20249;-92
2022/07/20 09:45:39;;;;;;;7.30;6.60;;;34.40;79.30;;;;;;4995589;28;20179;-92
2022/07/20 09:48:11;;;;;;;7.20;6.53;;;34.50;79.40;;;;;;4977108;28;20226;-92
2022/07/20 09:50:42;;;;;;;7.90;7.10;;;34.60;78.90;;;;;;4995829;28;20187;-92
2022/07/20 09:53:10;;;;;;;7.50;6.57;;;34.90;79.50;;;;;;4979767;28;20187;-92
2022/07/20 09:55:37;;;;;;;9.18;7.18;;;35.20;78.30;;;;;;4995082;28;20270;-92
2022/07/20 09:58:05;;;;;;;7.95;6.75;;;35.00;76.70;;;;;;4995582;28;20179;-92
2022/07/20 10:00:41;;;;;;;7.20;6.60;;;35.00;78.70;;;;;;4995136;28;20256;-91
2022/07/20 10:03:12;;;;;;;9.10;6.72;;;35.30;77.60;;;;;;4979861;28;20175;-91
2022/07/20 10:05:39;;;;;;;7.68;6.95;;;35.60;76.80;;;;;;4979126;28;20215;-92
2022/07/20 10:08:06;;;;;;;8.35;6.60;;;35.70;75.30;;;;;;4995280;28;20190;-92
2022/07/20 10:10:33;;;;;;;7.95;7.10;;;35.90;74.00;;;;;;4994924;28;20242;-92
2022/07/20 10:13:00;;;;;;;7.82;6.72;;;35.90;74.80;;;;;;4995349;28;20195;-92
2022/07/20 10:15:42;;;;;;;7.40;6.70;;;36.10;75.00;;;;;;4995264;28;20187;-92
2022/07/20 10:18:10;;;;;;;9.25;6.97;;;36.20;74.60;;;;;;4995300;28;20229;-92
2022/07/20 10:20:37;;;;;;;8.38;6.35;;;36.20;74.40;;;;;;4995222;28;20179;-92
2022/07/20 10:23:15;;;;;;;7.13;6.53;;;36.20;75.20;;;;;;4995120;28;20214;-91
2022/07/20 10:25:42;;;;;;;7.03;6.40;;;36.40;73.50;;;;;;4983895;28;20183;-92
2022/07/20 10:28:32;;;;;;;6.78;5.07;;;36.40;69.80;;;;;;4995445;28;20187;-91
2022/07/20 10:31:16;;;;;;;10.27;5.35;;;36.50;71.20;;;;;;4978928;28;20211;-91
2022/07/20 10:33:44;;;;;;;9.00;5.93;;;36.70;71.20;;;;;;4978867;28;20187;-91
2022/07/20 10:39:45;;;;;;;5.82;5.22;;;36.80;68.50;;;;;;4994746;28;20187;-91
2022/07/20 10:42:28;;;;;;;5.55;4.70;;;37.20;65.90;;;;;;4990213;28;20218;-91
2022/07/20 10:45:05;;;;;;;7.03;4.88;;;37.10;64.10;;;;;;4977869;28;20187;-91
2022/07/20 10:47:44;;;;;;;8.02;5.07;;;37.20;65.40;;;;;;5058240;23;20250;-36
2022/07/20 10:50:31;;;;;;;5.88;5.18;;;37.40;65.40;;;;;;4993429;28;20578;-39
2022/07/20 10:53:20;;;;;;;6.30;5.68;;;37.40;63.60;;;;;;4994298;28;20175;-36
2022/07/20 10:56:03;;;;;;;9.48;5.20;;;37.60;65.00;;;;;;5010219;28;20198;-36
2022/07/20 10:58:31;;;;;;;6.05;5.43;;;37.40;63.00;;;;;;4994047;28;20269;-38
2022/07/20 11:00:57;;;;;;;5.78;5.10;;;37.50;63.90;;;;;;4994391;28;20204;-37
2022/07/20 11:03:25;;;;;;;7.25;5.00;;;37.50;63.60;;;;;;4994172;28;20258;-35
2022/07/20 11:06:04;;;;;;;5.47;4.97;;;37.50;63.20;;;;;;4984429;28;20175;-35
2022/07/20 11:08:31;;;;;;;5.40;5.00;;;37.50;62.50;;;;;;4988139;28;20171;-35
2022/07/20 11:10:57;;;;;;;7.00;5.30;;;37.40;63.80;;;;;;4969666;28;20226;-35
2022/07/20 11:13:23;;;;;;;5.60;5.10;;;37.60;64.60;;;;;;4983227;28;20234;-36
2022/07/20 11:15:51;;;;;;;7.13;5.90;;;37.80;62.30;;;;;;4987241;28;20249;-38
2022/07/20 11:18:23;;;;;;;8.77;4.95;;;37.90;64.40;;;;;;4990857;28;20180;-37
2022/07/20 11:20:54;;;;;;;6.80;5.38;;;37.90;62.40;;;;;;4966573;28;20219;-39
2022/07/20 11:23:24;;;;;;;6.07;4.93;;;37.90;61.10;;;;;;4990225;28;20187;-35
2022/07/20 11:25:58;;;;;;;6.88;5.10;;;38.00;61.70;;;;;;4984743;28;20179;-37
2022/07/20 11:28:27;;;;;;;7.53;5.30;;;38.10;63.30;;;;;;4983510;28;20202;-36
2022/07/20 11:30:55;;;;;;;8.07;4.90;;;38.20;60.90;;;;;;4985047;28;20237;-35
2022/07/20 11:33:29;;;;;;;6.35;4.88;;;38.40;60.70;;;;;;4968278;28;20176;-37
2022/07/20 11:35:59;;;;;;;5.88;5.20;;;38.60;61.80;;;;;;4987541;28;20179;-38
2022/07/20 11:38:36;;;;;;;6.07;5.57;;;38.80;59.60;;;;;;4996255;28;20203;-37
2022/07/20 11:41:05;;;;;;;8.23;6.15;;;38.90;61.80;;;;;;4978997;28;20209;-36
2022/07/20 11:43:31;;;;;;;6.90;6.30;;;39.10;60.10;;;;;;4989281;28;20214;-36
2022/07/20 11:46:17;;;;;;;7.65;6.60;;;38.80;60.40;;;;;;4992721;28;20222;-36
2022/07/20 11:48:51;;;;;;;6.32;5.72;;;38.70;61.10;;;;;;4972904;28;20695;-34
2022/07/20 11:51:17;;;;;;;6.30;5.80;;;38.60;61.90;;;;;;4973998;28;20199;-35
2022/07/20 11:53:43;;;;;;;7.45;6.72;;;38.30;62.10;;;;;;4991958;28;20230;-37
2022/07/20 11:56:15;;;;;;;7.55;6.28;;;38.50;62.20;;;;;;4990272;28;20259;-35
2022/07/20 11:58:42;;;;;;;10.55;6.45;;;38.40;63.00;;;;;;4973744;28;20184;-35
2022/07/20 12:01:14;;;;;;;7.13;6.50;;;38.70;61.90;;;;;;4973748;28;20618;-35
2022/07/20 12:03:46;;;;;;;10.07;7.07;;;38.80;61.90;;;;;;4978830;28;20201;-36
2022/07/20 12:06:14;;;;;;;7.93;6.07;;;38.50;62.40;;;;;;4992805;28;20274;-35
2022/07/20 12:08:41;;;;;;;7.05;6.28;;;38.50;61.80;;;;;;4993617;28;20257;-36
2022/07/20 12:11:09;;;;;;;6.60;6.00;;;38.30;62.70;;;;;;4993069;28;20211;-36
2022/07/20 12:13:47;;;;;;;8.43;5.93;;;38.40;64.20;;;;;;4993459;28;20175;-35
2022/07/20 12:16:14;;;;;;;7.20;6.18;;;38.60;63.60;;;;;;4993238;28;20185;-35
2022/07/20 12:19:08;;;;;;;10.50;6.53;;;38.80;61.40;;;;;;5011635;28;20179;-36
2022/07/20 12:21:44;;;;;;;6.93;5.70;;;38.50;61.80;;;;;;4997552;28;20211;-37
2022/07/20 12:24:12;;;;;;;8.15;6.05;;;38.10;62.40;;;;;;4991912;28;20210;-35
2022/07/20 12:26:42;;;;;;;6.18;5.50;;;37.80;63.10;;;;;;4977399;28;20190;-35
2022/07/20 12:29:21;;;;;;;8.68;5.88;;;37.50;63.00;;;;;;4993107;28;20234;-35
2022/07/20 12:32:07;;;;;;;9.43;7.78;;;37.00;63.10;;;;;;5010767;28;20218;-37
2022/07/20 12:34:54;;;;;;;11.55;9.65;;;36.20;69.30;;;;;;4992442;28;20199;-35
2022/07/20 12:37:22;;;;;;;14.60;11.02;;;35.60;73.80;;;;;;4976721;28;20639;-34
2022/07/20 12:39:54;;;;;;;22.00;11.90;;;35.00;76.50;;;;;;4976747;28;20183;-34
2022/07/20 12:42:27;;;;;;;17.15;10.93;;;34.40;78.60;;;;;;5012867;28;20179;-34
2022/07/20 12:45:03;;;;;;;16.48;10.98;;;33.90;79.10;;;;;;4996826;28;20179;-35
2022/07/20 12:47:30;;;;;;;10.25;9.18;;;33.60;81.60;;;;;;5000174;28;20194;-34
2022/07/20 12:49:56;;;;;;;16.35;10.52;;;33.50;83.50;;;;;;4980266;28;20221;-34
2022/07/20 12:52:23;;;;;;;15.02;10.23;;;33.30;88.90;;;;;;4996427;28;20225;-34
2022/07/20 12:54:50;;;;;;;19.77;12.02;;;33.10;89.80;;;;;;4999910;28;20183;-35
2022/07/20 12:57:18;;;;;;;14.15;10.75;;;32.90;91.60;;;;;;5012523;28;20187;-33
2022/07/20 12:59:45;;;;;;;10.85;9.75;;;32.60;93.30;;;;;;5014220;28;20183;-36
2022/07/20 13:02:12;;;;;;;11.48;10.27;;;32.40;93.50;;;;;;4996500;28;20206;-34